Time;durP1;ratioP1;P1;durP2;ratioP2;P2;SDS_P1;SDS_P2;PMS_P1;PMS_P2;Temp;Humidity;BMP_temperature;BMP_pressure;BME280_temperature;BME280_humidity;BME280_pressure;Samples;Min_cycle;Max_cycle;Signal;HPM_P1;HPM_P2
2023/05/26 00:02:04;;;;;;;7.17;2.00;;;;;;;;;;5085301;28;20900;-81
2023/05/26 00:04:31;;;;;;;9.20;2.03;;;;;;;;;;5084554;28;20208;-80
2023/05/26 00:06:58;;;;;;;12.30;3.40;;;;;;;;;;5117806;27;20490;-79
2023/05/26 00:09:24;;;;;;;7.33;1.43;;;;;;;;;;5125846;27;20450;-79
2023/05/26 00:11:50;;;;;;;5.30;1.27;;;;;;;;;;5127211;27;20866;-82
2023/05/26 00:14:16;;;;;;;7.87;1.83;;;;;;;;;;5126896;27;20412;-81
2023/05/26 00:16:46;;;;;;;8.93;1.50;;;;;;;;;;5126280;27;20401;-81
2023/05/26 00:19:12;;;;;;;12.57;2.33;;;;;;;;;;5124384;27;20909;-81
2023/05/26 00:21:41;;;;;;;6.20;1.57;;;;;;;;;;5126579;27;20412;-81
2023/05/26 00:24:07;;;;;;;12.97;1.80;;;;;;;;;;5126643;27;20459;-80
2023/05/26 00:26:33;;;;;;;8.37;1.93;;;;;;;;;;5124297;27;20405;-80
2023/05/26 00:28:59;;;;;;;9.37;2.07;;;;;;;;;;5125314;27;20226;-79
2023/05/26 00:31:25;;;;;;;7.40;1.53;;;;;;;;;;5124623;27;20417;-79
2023/05/26 00:33:51;;;;;;;11.77;3.27;;;;;;;;;;5136922;27;20946;-80
2023/05/26 00:36:17;;;;;;;9.60;2.20;;;;;;;;;;5137114;27;20421;-79
2023/05/26 00:38:43;;;;;;;9.53;1.50;;;;;;;;;;5137198;27;20410;-80
2023/05/26 00:41:09;;;;;;;8.70;2.10;;;;;;;;;;5155182;27;20414;-81
2023/05/26 00:43:35;;;;;;;9.13;1.57;;;;;;;;;;5157754;27;20456;-79
2023/05/26 00:46:01;;;;;;;5.83;1.33;;;;;;;;;;5157820;27;20409;-80
2023/05/26 00:48:26;;;;;;;8.97;1.33;;;;;;;;;;5138825;27;20439;-80
2023/05/26 00:50:53;;;;;;;9.03;2.40;;;;;;;;;;5157696;27;20414;-81
2023/05/26 00:53:19;;;;;;;4.40;1.83;;;;;;;;;;5157672;27;20483;-80
2023/05/26 00:55:47;;;;;;;9.13;1.70;;;;;;;;;;5157585;27;20422;-80
2023/05/26 00:58:13;;;;;;;7.43;2.50;;;;;;;;;;5157580;27;20405;-80
2023/05/26 01:00:39;;;;;;;6.70;1.10;;;;;;;;;;5157472;27;20766;-80
2023/05/26 01:03:05;;;;;;;4.93;1.57;;;;;;;;;;5157070;27;20406;-80
2023/05/26 01:05:31;;;;;;;7.37;1.13;;;;;;;;;;5157304;27;21003;-80
2023/05/26 01:07:57;;;;;;;2.60;0.67;;;;;;;;;;5157384;27;20426;-81
2023/05/26 01:10:23;;;;;;;6.90;2.30;;;;;;;;;;5157371;27;20411;-81
2023/05/26 01:12:52;;;;;;;7.80;1.10;;;;;;;;;;5138588;27;20417;-81
2023/05/26 01:15:22;;;;;;;5.00;1.47;;;;;;;;;;5138591;27;20408;-82
2023/05/26 01:18:03;;;;;;;11.40;1.40;;;;;;;;;;5156836;27;20510;-81
2023/05/26 01:20:38;;;;;;;10.80;1.60;;;;;;;;;;5157188;27;20456;-81
2023/05/26 01:23:22;;;;;;;10.33;2.20;;;;;;;;;;5157218;27;20395;-81
2023/05/26 01:25:56;;;;;;;4.80;0.80;;;;;;;;;;5156962;27;20465;-81
2023/05/26 01:28:22;;;;;;;12.57;2.10;;;;;;;;;;5157042;27;20415;-79
2023/05/26 01:30:49;;;;;;;6.03;1.50;;;;;;;;;;5138391;27;20409;-79
2023/05/26 01:33:15;;;;;;;7.83;1.30;;;;;;;;;;5156595;27;20456;-81
2023/05/26 01:35:41;;;;;;;4.57;1.50;;;;;;;;;;5156877;27;20786;-79
2023/05/26 01:38:08;;;;;;;6.23;1.73;;;;;;;;;;5156809;27;20774;-79
2023/05/26 01:40:34;;;;;;;9.27;2.10;;;;;;;;;;5138186;27;20553;-79
2023/05/26 01:43:04;;;;;;;10.03;1.80;;;;;;;;;;5156694;27;20844;-78
2023/05/26 01:45:32;;;;;;;6.77;1.93;;;;;;;;;;5156562;27;20467;-81
2023/05/26 01:47:59;;;;;;;6.77;2.67;;;;;;;;;;5156261;27;20409;-79
2023/05/26 01:50:29;;;;;;;6.87;2.10;;;;;;;;;;5156555;27;20412;-79
2023/05/26 01:52:57;;;;;;;9.77;2.77;;;;;;;;;;5156564;27;20400;-79
2023/05/26 01:55:26;;;;;;;8.20;2.40;;;;;;;;;;5156513;27;20405;-79
2023/05/26 01:57:52;;;;;;;9.17;1.77;;;;;;;;;;5156461;27;20500;-80
2023/05/26 02:00:27;;;;;;;9.70;2.10;;;;;;;;;;5156390;27;20498;-79
2023/05/26 02:02:53;;;;;;;7.33;1.67;;;;;;;;;;5155995;27;20409;-80
2023/05/26 02:05:19;;;;;;;7.80;2.37;;;;;;;;;;5155880;27;20535;-80
2023/05/26 02:07:46;;;;;;;13.23;2.30;;;;;;;;;;5155904;27;20399;-79
2023/05/26 02:10:12;;;;;;;8.83;2.93;;;;;;;;;;5156239;27;20411;-80
2023/05/26 02:12:37;;;;;;;8.83;2.23;;;;;;;;;;5156066;27;20781;-79
2023/05/26 02:15:04;;;;;;;3.63;1.17;;;;;;;;;;5156080;27;20414;-79
2023/05/26 02:17:30;;;;;;;10.80;2.10;;;;;;;;;;5155671;27;20402;-79
2023/05/26 02:19:57;;;;;;;12.33;2.33;;;;;;;;;;5155922;27;20467;-79
2023/05/26 02:22:23;;;;;;;6.10;1.97;;;;;;;;;;5155910;27;20392;-80
2023/05/26 02:24:49;;;;;;;6.87;2.27;;;;;;;;;;5155751;27;20480;-80
2023/05/26 02:27:15;;;;;;;6.57;2.03;;;;;;;;;;5155709;27;20406;-80
2023/05/26 02:29:41;;;;;;;6.60;1.73;;;;;;;;;;5137290;27;20417;-79
2023/05/26 02:32:07;;;;;;;12.00;2.70;;;;;;;;;;5155429;27;20410;-80
2023/05/26 02:34:33;;;;;;;6.87;1.80;;;;;;;;;;5155740;27;20414;-80
2023/05/26 02:36:59;;;;;;;6.30;1.93;;;;;;;;;;5155644;27;20401;-80
2023/05/26 02:39:25;;;;;;;10.43;1.90;;;;;;;;;;5155546;27;20419;-80
2023/05/26 02:41:52;;;;;;;8.00;2.07;;;;;;;;;;5155541;27;20414;-80
2023/05/26 02:44:18;;;;;;;4.43;1.80;;;;;;;;;;5155446;27;20509;-80
2023/05/26 02:46:44;;;;;;;6.73;1.20;;;;;;;;;;5155035;27;20450;-80
2023/05/26 02:49:10;;;;;;;10.30;2.63;;;;;;;;;;5155460;27;20496;-80
2023/05/26 02:51:36;;;;;;;6.97;1.70;;;;;;;;;;5136779;27;20423;-79
2023/05/26 02:54:02;;;;;;;7.23;2.40;;;;;;;;;;5155590;27;20909;-80
2023/05/26 02:56:28;;;;;;;9.33;2.30;;;;;;;;;;5155146;27;20509;-80
2023/05/26 02:58:54;;;;;;;5.07;1.80;;;;;;;;;;5155205;27;20436;-79
2023/05/26 03:01:21;;;;;;;8.27;2.13;;;;;;;;;;5155213;27;20403;-79
2023/05/26 03:03:47;;;;;;;12.43;2.77;;;;;;;;;;5154763;27;20552;-79
2023/05/26 03:06:13;;;;;;;11.80;2.37;;;;;;;;;;5154918;27;20492;-79
2023/05/26 03:08:39;;;;;;;9.30;2.30;;;;;;;;;;5155037;27;20401;-80
2023/05/26 03:11:05;;;;;;;7.50;1.70;;;;;;;;;;5155082;27;20427;-81
2023/05/26 03:13:31;;;;;;;5.97;1.37;;;;;;;;;;5154927;27;20917;-80
2023/05/26 03:15:57;;;;;;;14.03;2.47;;;;;;;;;;5154991;27;20585;-80
2023/05/26 03:18:23;;;;;;;5.60;1.50;;;;;;;;;;5153735;27;20409;-79
2023/05/26 03:20:49;;;;;;;6.53;2.10;;;;;;;;;;5154938;27;20764;-79
2023/05/26 03:23:18;;;;;;;6.03;1.10;;;;;;;;;;5154678;27;20468;-80
2023/05/26 03:25:45;;;;;;;12.90;3.37;;;;;;;;;;5154840;27;20413;-80
2023/05/26 03:28:10;;;;;;;12.90;3.57;;;;;;;;;;5154774;27;20420;-79
2023/05/26 03:30:36;;;;;;;10.00;1.60;;;;;;;;;;5154787;27;20930;-80
2023/05/26 03:33:02;;;;;;;7.20;1.90;;;;;;;;;;5154394;27;20403;-80
2023/05/26 03:35:28;;;;;;;4.83;1.50;;;;;;;;;;5154498;27;20412;-78
2023/05/26 03:37:54;;;;;;;4.60;1.60;;;;;;;;;;5154783;27;20411;-80
2023/05/26 03:40:20;;;;;;;13.20;1.90;;;;;;;;;;5136076;27;20429;-80
2023/05/26 03:42:46;;;;;;;8.37;3.00;;;;;;;;;;5154667;27;20914;-81
2023/05/26 03:45:15;;;;;;;7.67;2.60;;;;;;;;;;5136046;27;20999;-80
2023/05/26 03:47:41;;;;;;;7.60;1.30;;;;;;;;;;5154269;27;20405;-80
2023/05/26 03:50:07;;;;;;;10.77;2.13;;;;;;;;;;5154607;27;20421;-81
2023/05/26 03:52:33;;;;;;;4.47;1.23;;;;;;;;;;5154540;27;20892;-79
2023/05/26 03:54:59;;;;;;;11.03;3.23;;;;;;;;;;5154562;27;20417;-79
2023/05/26 03:57:25;;;;;;;6.80;1.63;;;;;;;;;;5154555;27;20460;-78
2023/05/26 03:59:51;;;;;;;10.93;2.13;;;;;;;;;;5154493;27;20411;-78
2023/05/26 04:02:19;;;;;;;8.10;1.17;;;;;;;;;;5154147;27;20429;-79
2023/05/26 04:04:45;;;;;;;14.63;3.40;;;;;;;;;;5154393;27;20499;-80
2023/05/26 04:07:11;;;;;;;9.87;2.63;;;;;;;;;;5154216;27;20487;-80
2023/05/26 04:09:37;;;;;;;11.33;2.47;;;;;;;;;;5130015;28;20430;-79
2023/05/26 04:12:03;;;;;;;10.77;2.93;;;;;;;;;;5133709;28;20400;-78
2023/05/26 04:14:29;;;;;;;10.80;2.10;;;;;;;;;;5133658;28;20415;-78
2023/05/26 04:16:55;;;;;;;12.20;2.20;;;;;;;;;;5133185;28;20774;-79
2023/05/26 04:19:21;;;;;;;9.30;1.83;;;;;;;;;;5133472;28;20457;-78
2023/05/26 04:21:47;;;;;;;17.07;2.73;;;;;;;;;;5133403;28;20530;-80
2023/05/26 04:24:13;;;;;;;10.63;1.70;;;;;;;;;;5133465;28;20492;-79
2023/05/26 04:26:40;;;;;;;12.27;2.87;;;;;;;;;;5133491;28;20406;-80
2023/05/26 04:29:06;;;;;;;12.23;2.30;;;;;;;;;;5134183;27;20918;-79
2023/05/26 04:31:32;;;;;;;6.90;1.47;;;;;;;;;;5136851;27;20402;-79
2023/05/26 04:33:58;;;;;;;9.20;2.67;;;;;;;;;;5137187;27;20415;-81
2023/05/26 04:36:24;;;;;;;7.03;1.80;;;;;;;;;;5137260;27;20411;-78
2023/05/26 04:38:51;;;;;;;7.07;1.73;;;;;;;;;;5137255;27;20419;-80
2023/05/26 04:41:18;;;;;;;8.37;1.83;;;;;;;;;;5137228;27;20414;-81
2023/05/26 04:43:44;;;;;;;6.43;2.10;;;;;;;;;;5137059;27;20480;-79
2023/05/26 04:46:10;;;;;;;4.73;1.60;;;;;;;;;;5137003;27;20419;-79
2023/05/26 04:48:36;;;;;;;13.80;3.13;;;;;;;;;;5136635;27;20406;-80
2023/05/26 04:51:02;;;;;;;5.77;1.60;;;;;;;;;;5118531;27;20842;-80
2023/05/26 04:53:28;;;;;;;6.70;1.73;;;;;;;;;;5118498;27;20454;-80
2023/05/26 04:55:54;;;;;;;4.60;1.60;;;;;;;;;;5136827;27;20424;-79
2023/05/26 04:58:20;;;;;;;3.80;0.83;;;;;;;;;;5136875;27;20834;-80
2023/05/26 05:00:46;;;;;;;7.47;2.40;;;;;;;;;;5136691;27;20418;-81
2023/05/26 05:03:12;;;;;;;12.97;2.00;;;;;;;;;;5128595;27;20436;-79
2023/05/26 05:05:38;;;;;;;8.37;1.33;;;;;;;;;;5125000;27;21043;-80
2023/05/26 05:08:04;;;;;;;12.00;2.73;;;;;;;;;;5124096;27;20458;-79
2023/05/26 05:10:29;;;;;;;12.50;2.50;;;;;;;;;;5126643;27;20459;-79
2023/05/26 05:12:55;;;;;;;6.83;1.70;;;;;;;;;;5124742;27;20879;-81
2023/05/26 05:15:22;;;;;;;15.47;2.73;;;;;;;;;;5123403;27;20407;-79
2023/05/26 05:17:48;;;;;;;7.57;2.30;;;;;;;;;;5118236;27;20546;-80
2023/05/26 05:20:14;;;;;;;12.50;2.57;;;;;;;;;;5124002;27;20493;-79
2023/05/26 05:22:40;;;;;;;11.17;2.70;;;;;;;;;;5122140;27;20412;-79
2023/05/26 05:25:06;;;;;;;9.47;1.57;;;;;;;;;;5125621;27;20602;-81
2023/05/26 05:27:32;;;;;;;13.67;2.60;;;;;;;;;;5123896;27;20433;-81
2023/05/26 05:29:57;;;;;;;7.13;2.60;;;;;;;;;;5126627;27;20532;-81
2023/05/26 05:32:23;;;;;;;11.83;2.20;;;;;;;;;;5135771;27;20397;-81
2023/05/26 05:34:49;;;;;;;10.63;2.10;;;;;;;;;;5136064;27;20414;-81
2023/05/26 05:37:15;;;;;;;9.20;2.30;;;;;;;;;;5135154;27;20397;-81
2023/05/26 05:39:41;;;;;;;7.00;1.40;;;;;;;;;;5136112;27;20414;-81
2023/05/26 05:42:07;;;;;;;10.50;1.57;;;;;;;;;;5135086;27;20913;-81
2023/05/26 05:44:33;;;;;;;11.10;2.23;;;;;;;;;;5135917;27;20465;-82
2023/05/26 05:46:59;;;;;;;9.20;1.77;;;;;;;;;;5135557;27;20405;-82
2023/05/26 05:49:25;;;;;;;7.30;1.77;;;;;;;;;;5135873;27;20410;-82
2023/05/26 05:51:51;;;;;;;10.97;2.83;;;;;;;;;;5135862;27;20410;-81
2023/05/26 05:54:17;;;;;;;8.00;2.00;;;;;;;;;;5135759;27;20761;-82
2023/05/26 05:56:42;;;;;;;12.63;1.97;;;;;;;;;;5135749;27;20452;-81
2023/05/26 05:59:10;;;;;;;6.00;1.57;;;;;;;;;;5135772;27;20895;-83
2023/05/26 06:01:36;;;;;;;8.63;1.57;;;;;;;;;;5135308;27;20401;-82
2023/05/26 06:04:02;;;;;;;8.20;1.60;;;;;;;;;;5154661;27;20461;-83
2023/05/26 06:06:28;;;;;;;9.43;3.63;;;;;;;;;;5156109;27;20464;-81
2023/05/26 06:08:54;;;;;;;10.40;2.90;;;;;;;;;;5156221;27;20487;-83
2023/05/26 06:11:21;;;;;;;6.57;1.80;;;;;;;;;;5156127;27;20911;-84
2023/05/26 06:13:47;;;;;;;16.70;2.43;;;;;;;;;;5157105;27;20522;-84
2023/05/26 06:16:13;;;;;;;13.73;4.27;;;;;;;;;;5156096;27;20431;-83
2023/05/26 06:18:39;;;;;;;15.10;2.13;;;;;;;;;;5137373;27;20410;-83
2023/05/26 06:21:05;;;;;;;13.03;1.57;;;;;;;;;;5155739;27;20499;-82
2023/05/26 06:23:31;;;;;;;12.83;2.87;;;;;;;;;;5137357;27;20491;-85
2023/05/26 06:25:56;;;;;;;8.17;2.50;;;;;;;;;;5137392;27;20170;-84
2023/05/26 06:28:22;;;;;;;8.03;1.97;;;;;;;;;;5155848;27;20411;-82
2023/05/26 06:30:49;;;;;;;7.23;1.57;;;;;;;;;;5155704;27;20163;-84
2023/05/26 06:33:15;;;;;;;6.60;1.30;;;;;;;;;;5155049;27;20402;-84
2023/05/26 06:35:41;;;;;;;11.43;1.93;;;;;;;;;;5137107;27;20444;-84
2023/05/26 06:38:07;;;;;;;12.77;2.10;;;;;;;;;;5137017;27;20396;-84
2023/05/26 06:40:33;;;;;;;8.97;1.10;;;;;;;;;;5155627;27;20881;-84
2023/05/26 06:42:59;;;;;;;10.80;2.07;;;;;;;;;;5155395;27;20404;-84
2023/05/26 06:45:25;;;;;;;4.37;1.30;;;;;;;;;;5155396;27;20478;-84
2023/05/26 06:47:51;;;;;;;11.90;3.37;;;;;;;;;;5155087;27;20402;-85
2023/05/26 06:50:16;;;;;;;9.37;2.00;;;;;;;;;;5155434;27;20356;-85
2023/05/26 06:52:42;;;;;;;6.80;1.43;;;;;;;;;;5155207;27;20893;-85
2023/05/26 06:55:09;;;;;;;5.07;0.87;;;;;;;;;;5155309;27;20178;-84
2023/05/26 06:57:35;;;;;;;7.60;2.10;;;;;;;;;;5155303;27;20219;-83
2023/05/26 07:00:01;;;;;;;7.67;1.60;;;;;;;;;;5155189;27;20411;-83
2023/05/26 07:02:26;;;;;;;4.63;1.03;;;;;;;;;;5154761;27;20895;-85
2023/05/26 07:04:52;;;;;;;6.80;1.00;;;;;;;;;;5155154;27;20472;-85
2023/05/26 07:07:18;;;;;;;4.10;1.33;;;;;;;;;;5154975;27;20857;-82
2023/05/26 07:09:45;;;;;;;10.73;1.77;;;;;;;;;;5155477;27;20246;-85
2023/05/26 07:12:11;;;;;;;5.83;0.97;;;;;;;;;;5155038;27;20167;-84
2023/05/26 07:14:37;;;;;;;5.70;1.10;;;;;;;;;;5155019;27;20964;-86
2023/05/26 07:17:03;;;;;;;8.50;1.53;;;;;;;;;;5135985;27;20439;-85
2023/05/26 07:19:29;;;;;;;4.40;1.13;;;;;;;;;;5154952;27;20255;-85
2023/05/26 07:21:55;;;;;;;4.03;1.00;;;;;;;;;;5154905;27;20428;-85
2023/05/26 07:24:21;;;;;;;5.83;1.30;;;;;;;;;;5148916;27;20294;-83
2023/05/26 07:26:47;;;;;;;9.43;2.40;;;;;;;;;;5132145;27;20956;-84
2023/05/26 07:29:13;;;;;;;5.37;1.20;;;;;;;;;;5133108;27;20178;-81
2023/05/26 07:31:39;;;;;;;5.30;1.70;;;;;;;;;;5132592;27;20173;-82
2023/05/26 07:34:05;;;;;;;4.37;1.10;;;;;;;;;;5132862;27;20403;-81
2023/05/26 07:36:32;;;;;;;5.33;1.60;;;;;;;;;;5125502;27;20752;-81
2023/05/26 07:38:57;;;;;;;6.90;1.40;;;;;;;;;;5112846;28;20185;-81
2023/05/26 07:41:23;;;;;;;3.53;1.37;;;;;;;;;;5112699;28;20488;-81
2023/05/26 07:43:49;;;;;;;4.37;1.00;;;22.80;1.00;;;;;;5112339;28;20191;-82
2023/05/26 07:46:15;;;;;;;6.20;1.40;;;23.00;1.00;;;;;;5112731;28;20426;-77
2023/05/26 07:48:40;;;;;;;7.57;1.70;;;23.20;1.00;;;;;;5112848;28;20577;-78
2023/05/26 07:51:06;;;;;;;5.47;1.30;;;23.20;1.00;;;;;;5112919;28;20726;-78
2023/05/26 07:53:31;;;;;;;10.93;2.93;;;23.10;1.00;;;;;;5114141;28;20168;-80
2023/05/26 07:55:57;;;;;;;4.47;1.37;;;23.20;1.00;;;;;;5113600;28;20218;-79
2023/05/26 07:58:22;;;;;;;7.07;1.90;;;23.40;1.00;;;;;;5113248;28;20522;-78
2023/05/26 08:00:48;;;;;;;5.20;1.77;;;23.60;1.00;;;;;;5112743;28;20171;-79
2023/05/26 08:03:13;;;;;;;5.90;2.43;;;23.70;1.00;;;;;;5113319;28;20172;-81
2023/05/26 08:05:38;;;;;;;6.83;1.50;;;23.90;1.00;;;;;;5116535;28;20309;-79
2023/05/26 08:08:04;;;;;;;6.97;1.33;;;24.10;1.00;;;;;;5099076;28;20180;-80
2023/05/26 08:10:30;;;;;;;7.77;1.50;;;24.20;1.00;;;;;;5117376;28;20623;-80
2023/05/26 08:12:55;;;;;;;8.30;1.07;;;24.40;1.00;;;;;;5117146;28;20175;-80
2023/05/26 08:15:21;;;;;;;4.80;1.13;;;24.30;1.00;;;;;;5117160;28;20654;-80
2023/05/26 08:17:47;;;;;;;5.23;1.97;;;24.50;1.00;;;;;;5116829;28;20179;-80
2023/05/26 08:20:13;;;;;;;5.20;1.60;;;24.60;1.00;;;;;;5117042;28;20179;-79
2023/05/26 08:22:38;;;;;;;3.70;1.57;;;24.60;1.00;;;;;;5117085;28;20409;-80
2023/05/26 08:25:05;;;;;;;5.30;2.13;;;24.70;1.00;;;;;;5116943;28;20667;-79
2023/05/26 08:27:30;;;;;;;4.07;1.33;;;24.80;1.00;;;;;;5116948;28;20759;-80
2023/05/26 08:29:56;;;;;;;6.63;2.10;;;24.80;1.00;;;;;;5116991;28;20434;-82
2023/05/26 08:32:21;;;;;;;5.33;2.03;;;24.90;1.00;;;;;;5116533;28;20200;-82
2023/05/26 08:34:47;;;;;;;4.20;1.30;;;24.90;1.00;;;;;;5116707;28;20175;-80
2023/05/26 08:37:13;;;;;;;4.27;1.00;;;24.70;1.00;;;;;;5116771;28;20179;-81
2023/05/26 08:39:40;;;;;;;5.97;1.70;;;24.80;1.00;;;;;;5116724;28;20180;-79
2023/05/26 08:42:06;;;;;;;4.90;1.43;;;24.90;1.00;;;;;;5116801;28;20458;-80
2023/05/26 08:44:36;;;;;;;5.00;1.30;;;25.10;1.00;;;;;;5116565;28;20875;-82
2023/05/26 08:47:05;;;;;;;7.00;1.50;;;25.20;1.00;;;;;;5116192;28;20417;-82
2023/05/26 08:49:38;;;;;;;4.67;1.50;;;25.50;1.00;;;;;;5116613;28;20396;-82
2023/05/26 08:52:09;;;;;;;5.70;1.47;;;25.60;1.00;;;;;;5098267;28;20921;-83
2023/05/26 08:54:45;;;;;;;7.43;1.40;;;25.60;1.00;;;;;;5098196;28;20417;-82
2023/05/26 08:57:12;;;;;;;5.10;1.47;;;25.60;1.00;;;;;;5116384;28;20408;-82
2023/05/26 08:59:39;;;;;;;4.77;1.80;;;25.60;1.00;;;;;;5098073;28;20418;-82
2023/05/26 09:02:04;;;;;;;9.63;2.20;;;25.70;1.00;;;;;;5121234;27;20412;-82
2023/05/26 09:04:30;;;;;;;5.10;1.50;;;25.90;1.00;;;;;;5116249;28;20474;-82
2023/05/26 09:06:57;;;;;;;4.90;1.77;;;25.90;1.00;;;;;;5116065;28;20458;-82
2023/05/26 09:09:23;;;;;;;7.17;2.10;;;26.20;1.00;;;;;;5116098;28;20224;-83
2023/05/26 09:11:48;;;;;;;6.23;1.97;;;26.20;1.00;;;;;;5116117;28;20888;-82
2023/05/26 09:14:19;;;;;;;5.23;1.30;;;26.30;1.00;;;;;;5116149;28;20259;-82
2023/05/26 09:16:45;;;;;;;4.20;1.57;;;26.50;1.00;;;;;;5101071;27;20167;-81
2023/05/26 09:19:16;;;;;;;6.57;1.80;;;26.40;1.00;;;;;;5097700;28;20420;-81
2023/05/26 09:21:49;;;;;;;6.97;1.70;;;26.40;1.00;;;;;;5115895;28;20159;-82
2023/05/26 09:24:16;;;;;;;11.10;1.80;;;26.40;1.00;;;;;;5115745;28;20506;-81
2023/05/26 09:26:44;;;;;;;7.50;2.77;;;26.20;1.00;;;;;;5115840;28;20498;-82
2023/05/26 09:29:10;;;;;;;6.13;2.03;;;26.00;1.00;;;;;;5115644;28;20433;-81
2023/05/26 09:31:47;;;;;;;3.50;2.20;;;25.90;1.00;;;;;;5131119;27;20903;-82
2023/05/26 09:34:14;;;;;;;7.13;1.70;;;25.90;1.00;;;;;;5117803;27;20174;-82
2023/05/26 09:36:40;;;;;;;6.90;1.73;;;26.20;1.00;;;;;;5136242;27;20778;-82
2023/05/26 09:39:09;;;;;;;5.43;2.43;;;26.40;1.00;;;;;;5136213;27;20421;-81
2023/05/26 09:41:38;;;;;;;4.03;1.30;;;26.60;1.00;;;;;;5136119;27;20903;-82
2023/05/26 09:44:17;;;;;;;5.83;1.43;;;26.70;1.00;;;;;;5135982;27;20481;-83
2023/05/26 09:46:44;;;;;;;6.00;1.80;;;27.20;1.00;;;;;;5117288;27;20922;-84
2023/05/26 09:49:18;;;;;;;5.27;1.80;;;27.40;1.00;;;;;;5135980;27;20420;-82
2023/05/26 09:51:49;;;;;;;3.90;1.87;;;27.60;1.00;;;;;;5135919;27;20408;-82
2023/05/26 09:54:15;;;;;;;7.17;1.73;;;27.80;1.00;;;;;;5117480;27;20496;-82
2023/05/26 09:56:53;;;;;;;3.27;0.90;;;28.20;1.00;;;;;;5135804;27;20503;-81
2023/05/26 09:59:26;;;;;;;6.40;2.17;;;28.50;1.00;;;;;;5135758;27;20171;-81
2023/05/26 10:01:53;;;;;;;6.03;1.20;;;28.70;1.00;;;;;;5135470;27;20440;-82
2023/05/26 10:04:19;;;;;;;6.87;1.23;;;28.70;1.00;;;;;;5135579;27;20452;-82
2023/05/26 10:06:48;;;;;;;6.70;1.63;;;28.80;1.00;;;;;;5135463;27;20448;-82
2023/05/26 10:09:14;;;;;;;4.13;1.53;;;28.90;1.00;;;;;;5135364;27;20404;-83
2023/05/26 10:11:45;;;;;;;4.13;1.27;;;29.10;1.00;;;;;;5135684;27;20424;-82
2023/05/26 10:14:11;;;;;;;4.83;1.47;;;29.40;1.00;;;;;;5135394;27;20413;-80
2023/05/26 10:16:38;;;;;;;5.37;0.93;;;29.60;1.00;;;;;;5134937;27;20888;-81
2023/05/26 10:19:05;;;;;;;6.57;1.20;;;29.80;1.00;;;;;;5135309;27;20919;-82
2023/05/26 10:21:37;;;;;;;7.50;1.27;;;29.90;1.00;;;;;;5135376;27;20473;-82
2023/05/26 10:24:11;;;;;;;6.63;2.00;;;29.80;1.00;;;;;;5135238;27;20464;-83
2023/05/26 10:26:52;;;;;;;12.20;3.03;;;29.60;1.00;;;;;;5124723;27;20475;-85
2023/05/26 10:29:21;;;;;;;8.03;1.80;;;29.30;1.00;;;;;;5132786;27;20908;-82
2023/05/26 10:31:46;;;;;;;5.30;1.60;;;29.10;1.00;;;;;;5115384;27;20497;-83
2023/05/26 10:34:45;;;;;;;3.60;1.37;;;28.90;1.00;;;;;;5134053;27;20441;-83
2023/05/26 10:37:15;;;;;;;7.67;1.90;;;28.80;1.00;;;;;;5133922;27;20694;-82
2023/05/26 10:39:40;;;;;;;4.57;1.47;;;28.90;1.00;;;;;;5133768;27;20474;-81
2023/05/26 10:42:18;;;;;;;3.77;1.60;;;29.10;1.00;;;;;;5115305;27;20413;-82
2023/05/26 10:44:54;;;;;;;5.60;2.07;;;29.30;1.00;;;;;;5133860;27;20206;-82
2023/05/26 10:47:19;;;;;;;4.00;1.20;;;29.40;1.00;;;;;;5133342;27;20768;-82
2023/05/26 10:49:56;;;;;;;3.40;1.27;;;29.50;1.00;;;;;;5115270;27;20416;-81
2023/05/26 10:52:21;;;;;;;5.33;1.83;;;29.60;1.00;;;;;;5133747;27;20163;-82
2023/05/26 10:54:50;;;;;;;5.27;1.50;;;29.50;1.00;;;;;;5133502;27;20412;-82
2023/05/26 10:57:32;;;;;;;5.33;1.27;;;29.30;1.00;;;;;;5133621;27;20219;-81
2023/05/26 10:59:58;;;;;;;4.47;1.53;;;28.70;1.00;;;;;;5133486;27;20401;-81
2023/05/26 11:02:24;;;;;;;4.07;1.47;;;28.50;1.00;;;;;;5133068;27;20397;-82
2023/05/26 11:04:50;;;;;;;7.07;1.87;;;28.70;1.00;;;;;;5133471;27;20536;-81
2023/05/26 11:07:27;;;;;;;5.60;2.07;;;28.80;1.00;;;;;;5133352;27;20314;-81
2023/05/26 11:10:02;;;;;;;7.87;2.27;;;28.80;1.00;;;;;;5133328;27;20797;-82
2023/05/26 11:12:54;;;;;;;4.00;2.10;;;28.80;1.00;;;;;;5133718;27;20769;-84
2023/05/26 11:15:32;;;;;;;5.87;1.73;;;29.10;1.00;;;;;;5114102;27;20412;-83
2023/05/26 11:18:08;;;;;;;3.10;1.37;;;29.30;1.00;;;;;;5114633;27;20515;-83
2023/05/26 11:20:34;;;;;;;6.00;1.50;;;29.50;1.00;;;;;;5133211;27;20408;-84
2023/05/26 11:23:00;;;;;;;7.10;1.73;;;29.30;1.00;;;;;;5132993;27;20950;-83
2023/05/26 11:25:26;;;;;;;4.77;2.00;;;29.30;1.00;;;;;;5132872;27;20464;-85
2023/05/26 11:27:52;;;;;;;6.30;2.63;;;29.20;1.00;;;;;;5132751;27;20230;-83
2023/05/26 11:30:18;;;;;;;5.00;2.07;;;29.30;1.00;;;;;;5132647;27;20412;-83
2023/05/26 11:32:45;;;;;;;5.23;2.73;;;29.50;1.00;;;;;;5132944;27;20162;-82
2023/05/26 11:35:24;;;;;;;6.33;1.97;;;29.50;1.00;;;;;;5114449;28;20785;-82
2023/05/26 11:37:50;;;;;;;4.63;2.00;;;29.50;1.00;;;;;;5132797;27;20431;-86
2023/05/26 11:40:16;;;;;;;6.23;2.03;;;29.50;1.00;;;;;;5132270;27;20400;-88
2023/05/26 11:42:45;;;;;;;9.80;2.70;;;29.50;1.00;;;;;;5101898;28;20662;-85
2023/05/26 11:45:11;;;;;;;9.40;2.37;;;29.60;1.00;;;;;;5112216;28;20219;-86
2023/05/26 11:47:37;;;;;;;5.53;2.10;;;29.60;1.00;;;;;;5126607;27;20466;-84
2023/05/26 11:50:14;;;;;;;6.23;1.90;;;29.50;1.00;;;;;;5114514;28;20224;-85
2023/05/26 11:52:48;;;;;;;5.70;1.47;;;29.10;1.00;;;;;;5114897;28;20177;-86
2023/05/26 11:55:15;;;;;;;6.23;1.67;;;29.10;1.00;;;;;;5133319;28;20455;-84
2023/05/26 11:57:42;;;;;;;5.00;1.97;;;29.00;1.00;;;;;;5133240;28;20423;-84
2023/05/26 12:00:18;;;;;;;6.10;2.10;;;29.10;1.00;;;;;;5130471;28;20418;-85
2023/05/26 12:02:44;;;;;;;6.23;2.67;;;29.00;1.00;;;;;;5096884;28;20416;-85
2023/05/26 12:05:23;;;;;;;4.63;2.20;;;29.10;1.00;;;;;;5112289;28;20830;-85
2023/05/26 12:08:02;;;;;;;5.53;3.03;;;28.60;1.00;;;;;;5093961;28;20433;-86
2023/05/26 12:10:28;;;;;;;6.40;2.97;;;28.30;1.00;;;;;;5112377;28;20920;-85
2023/05/26 12:12:54;;;;;;;8.80;2.97;;;28.30;1.00;;;;;;5115009;28;20413;-87
2023/05/26 12:15:21;;;;;;;6.83;3.23;;;28.20;1.00;;;;;;5124999;27;20496;-90
2023/05/26 12:17:47;;;;;;;8.60;3.10;;;28.20;1.00;;;;;;5109268;28;20759;-84
2023/05/26 12:20:18;;;;;;;6.10;2.90;;;28.40;1.00;;;;;;5126683;27;20470;-82
2023/05/26 12:22:44;;;;;;;4.70;2.80;;;28.70;1.00;;;;;;5112656;28;20436;-87
2023/05/26 12:25:09;;;;;;;7.00;2.77;;;28.90;1.00;;;;;;5132521;28;20818;-86
2023/05/26 12:27:38;;;;;;;5.80;1.80;;;28.90;1.00;;;;;;5132864;28;20419;-84
2023/05/26 12:30:21;;;;;;;5.27;2.17;;;28.90;1.00;;;;;;5132267;28;20661;-83
2023/05/26 12:32:48;;;;;;;7.17;3.10;;;28.70;1.00;;;;;;5114190;28;20877;-82
2023/05/26 12:35:14;;;;;;;5.53;2.37;;;28.60;1.00;;;;;;5114077;28;20436;-84
2023/05/26 12:37:39;;;;;;;4.67;2.60;;;28.50;1.00;;;;;;5132554;28;20495;-85
2023/05/26 12:40:06;;;;;;;5.73;3.10;;;;;;;;;;5132307;28;20521;-84
2023/05/26 12:42:32;;;;;;;3.93;2.30;;;;;;;;;;5132543;28;20883;-85
2023/05/26 12:44:58;;;;;;;8.93;2.50;;;;;;;;;;5113303;27;20566;-87
2023/05/26 12:47:24;;;;;;;7.10;2.50;;;;;;;;;;5109651;27;20765;-85
2023/05/26 12:49:49;;;;;;;7.20;2.50;;;;;;;;;;5132641;27;20187;-86
2023/05/26 12:52:16;;;;;;;5.87;2.33;;;;;;;;;;5116415;27;20167;-85
2023/05/26 12:54:42;;;;;;;5.10;2.70;;;;;;;;;;5156257;27;20194;-86
2023/05/26 12:57:08;;;;;;;5.67;2.83;;;;;;;;;;5156780;27;20447;-83
2023/05/26 12:59:36;;;;;;;5.40;2.47;;;;;;;;;;5156994;27;20177;-84
2023/05/26 13:02:02;;;;;;;7.03;2.50;;;;;;;;;;5156468;27;20484;-87
2023/05/26 13:04:28;;;;;;;7.13;2.43;;;;;;;;;;5138219;27;20543;-90
2023/05/26 13:06:55;;;;;;;5.27;2.40;;;;;;;;;;5156698;27;20455;-87
2023/05/26 13:09:21;;;;;;;4.70;2.43;;;;;;;;;;5138460;27;20427;-85
2023/05/26 13:11:47;;;;;;;5.80;2.03;;;;;;;;;;5157271;27;20407;-85
2023/05/26 13:14:14;;;;;;;4.77;1.73;;;;;;;;;;5140540;27;20408;-85
2023/05/26 13:16:40;;;;;;;5.43;2.27;;;;;;;;;;5135878;27;20409;-85
2023/05/26 13:19:06;;;;;;;4.87;1.73;;;;;;;;;;5132826;27;20519;-85
2023/05/26 13:21:32;;;;;;;6.03;1.53;;;;;;;;;;5136238;27;20423;-86
2023/05/26 13:23:58;;;;;;;4.20;1.87;;;;;;;;;;5135852;27;20816;-86
2023/05/26 13:26:25;;;;;;;3.67;2.17;;;;;;;;;;5136199;27;20405;-86
2023/05/26 13:28:51;;;;;;;4.43;1.60;;;;;;;;;;5117659;27;20231;-86
2023/05/26 13:31:17;;;;;;;5.13;1.40;;;;;;;;;;5135768;27;20456;-86
2023/05/26 13:33:43;;;;;;;8.33;2.13;;;;;;;;;;5135985;27;20409;-86
2023/05/26 13:36:09;;;;;;;6.23;2.03;;;;;;;;;;5136666;27;20417;-86
2023/05/26 13:38:35;;;;;;;7.67;2.70;;;;;;;;;;5156735;27;20411;-86
2023/05/26 13:41:01;;;;;;;6.37;2.50;;;;;;;;;;5156178;27;20411;-85
2023/05/26 13:43:27;;;;;;;5.03;2.03;;;;;;;;;;5156289;27;20400;-86
2023/05/26 13:45:53;;;;;;;4.80;2.07;;;;;;;;;;5155925;27;20544;-87
2023/05/26 13:48:20;;;;;;;5.27;2.40;;;;;;;;;;5137941;27;20539;-87
2023/05/26 13:50:46;;;;;;;7.50;2.33;;;;;;;;;;5137774;27;20170;-87
2023/05/26 13:53:15;;;;;;;5.70;2.67;;;;;;;;;;5156151;27;20395;-88
2023/05/26 13:55:45;;;;;;;6.00;2.17;;;;;;;;;;5156098;27;20179;-88
2023/05/26 13:58:11;;;;;;;6.13;4.00;;;;;;;;;;5137641;27;20838;-87
2023/05/26 14:00:37;;;;;;;5.90;2.20;;;;;;;;;;5137209;27;20957;-88
2023/05/26 14:03:04;;;;;;;9.93;2.30;;;;;;;;;;5136816;27;20408;-86